createdAt,value
2018-08-03T00:01:38.956Z,100450.20
2018-08-03T00:04:06.678Z,100449.47
2018-08-03T00:06:34.409Z,100445.30
2018-08-03T00:09:02.264Z,100449.38
2018-08-03T00:11:29.948Z,100443.90
2018-08-03T00:13:57.669Z,100443.69
2018-08-03T00:16:25.329Z,100439.77
2018-08-03T00:18:53.277Z,100440.27
2018-08-03T00:21:21.013Z,100439.44
2018-08-03T00:23:48.819Z,100450.45
2018-08-03T00:26:16.667Z,100446.84
2018-08-03T00:28:44.383Z,100448.87
2018-08-03T00:31:12.050Z,100446.58
2018-08-03T00:33:39.802Z,100447.44
2018-08-03T00:36:07.571Z,100443.09
2018-08-03T00:38:35.321Z,100450.77
2018-08-03T00:41:03.058Z,100445.86
2018-08-03T00:43:30.757Z,100447.70
2018-08-03T00:45:58.468Z,100443.36
2018-08-03T00:48:26.166Z,100449.84
2018-08-03T00:50:54.206Z,100440.56
2018-08-03T00:53:21.945Z,100445.71
2018-08-03T00:55:49.620Z,100448.18
2018-08-03T00:58:17.310Z,100447.71
2018-08-03T01:00:45.006Z,100450.70
2018-08-03T01:03:12.702Z,100454.57
2018-08-03T01:05:40.361Z,100446.75
2018-08-03T01:08:08.028Z,100451.96
2018-08-03T01:10:35.756Z,100455.98
2018-08-03T01:13:03.509Z,100447.71
2018-08-03T01:15:31.220Z,100450.27
2018-08-03T01:17:58.881Z,100454.13
2018-08-03T01:20:26.673Z,100440.84
2018-08-03T01:22:54.387Z,100437.33
2018-08-03T01:25:22.113Z,100436.41
2018-08-03T01:27:49.860Z,100432.75
2018-08-03T01:30:17.585Z,100441.20
2018-08-03T01:32:45.381Z,100439.44
2018-08-03T01:35:13.097Z,100434.56
2018-08-03T01:37:41.171Z,100429.50
2018-08-03T01:40:08.922Z,100427.78
2018-08-03T01:42:36.672Z,100432.86
2018-08-03T01:45:04.504Z,100437.22
2018-08-03T01:47:32.204Z,100436.92
2018-08-03T01:49:59.924Z,100437.88
2018-08-03T01:52:27.680Z,100422.84
2018-08-03T01:54:55.352Z,100423.90
2018-08-03T01:57:23.036Z,100422.42
2018-08-03T01:59:50.723Z,100425.34
2018-08-03T02:02:18.435Z,100418.56
2018-08-03T02:04:46.061Z,100425.00
2018-08-03T02:07:13.728Z,100426.13
2018-08-03T02:09:41.431Z,100432.33
2018-08-03T02:12:09.219Z,100425.52
2018-08-03T02:14:36.891Z,100426.02
2018-08-03T02:17:04.625Z,100429.83
2018-08-03T02:19:32.342Z,100435.81
2018-08-03T02:22:00.092Z,100430.26
2018-08-03T02:24:27.848Z,100442.85
2018-08-03T02:26:55.515Z,100440.52
2018-08-03T02:29:23.233Z,100437.05
2018-08-03T02:31:50.968Z,100430.77
2018-08-03T02:34:18.657Z,100433.25
2018-08-03T02:36:46.344Z,100432.82
2018-08-03T02:39:14.110Z,100432.19
2018-08-03T02:41:41.919Z,100433.52
2018-08-03T02:44:09.896Z,100438.38
2018-08-03T02:46:37.844Z,100444.87
2018-08-03T02:49:05.697Z,100444.81
2018-08-03T02:51:33.513Z,100442.64
2018-08-03T02:54:01.199Z,100444.41
2018-08-03T02:56:28.818Z,100441.98
2018-08-03T02:58:56.416Z,100438.89
2018-08-03T03:01:24.129Z,100440.72
2018-08-03T03:03:51.883Z,100445.12
2018-08-03T03:06:19.524Z,100446.30
2018-08-03T03:08:47.223Z,100445.19
2018-08-03T03:11:14.923Z,100452.88
2018-08-03T03:13:42.601Z,100452.97
2018-08-03T03:16:10.373Z,100451.63
2018-08-03T03:18:38.107Z,100448.98
2018-08-03T03:21:06.026Z,100456.25
2018-08-03T03:23:33.776Z,100458.27
2018-08-03T03:26:01.511Z,100457.94
2018-08-03T03:28:29.279Z,100459.50
2018-08-03T03:30:57.022Z,100454.10
2018-08-03T03:33:24.691Z,100456.99
2018-08-03T03:35:52.864Z,100458.31
2018-08-03T03:38:20.498Z,100461.71
2018-08-03T03:40:48.208Z,100459.83
2018-08-03T03:43:15.898Z,100468.35
2018-08-03T03:45:43.532Z,100463.16
2018-08-03T03:48:15.785Z,100459.36
2018-08-03T03:50:43.479Z,100462.33
2018-08-03T03:53:11.188Z,100460.55
2018-08-03T03:55:38.897Z,100459.98
2018-08-03T03:58:06.652Z,100455.42
2018-08-03T04:00:34.378Z,100464.29
2018-08-03T04:03:02.092Z,100470.13
2018-08-03T04:05:29.811Z,100471.80
2018-08-03T04:07:57.588Z,100472.33
2018-08-03T04:10:25.271Z,100476.01
2018-08-03T04:12:53.022Z,100480.78
2018-08-03T04:15:20.744Z,100480.64
2018-08-03T04:17:48.534Z,100481.38
2018-08-03T04:20:16.452Z,100487.66
2018-08-03T04:22:44.214Z,100485.44
2018-08-03T04:25:12.020Z,100482.89
2018-08-03T04:27:39.732Z,100480.16
2018-08-03T04:30:08.627Z,100485.69
2018-08-03T04:32:36.336Z,100490.69
2018-08-03T04:35:04.111Z,100491.81
2018-08-03T04:37:31.792Z,100493.08
2018-08-03T04:39:59.498Z,100492.47
2018-08-03T04:42:27.163Z,100492.98
2018-08-03T04:44:54.839Z,100493.84
2018-08-03T04:47:22.560Z,100494.64
2018-08-03T04:49:50.229Z,100495.15
2018-08-03T04:52:17.905Z,100497.80
2018-08-03T04:54:45.703Z,100497.76
2018-08-03T04:57:13.424Z,100498.28
2018-08-03T04:59:41.103Z,100500.72
2018-08-03T05:02:09.542Z,100511.12
2018-08-03T05:04:37.214Z,100507.58
2018-08-03T05:07:04.881Z,100507.05
2018-08-03T05:09:32.646Z,100506.52
2018-08-03T05:12:00.566Z,100507.47
2018-08-03T05:14:28.398Z,100509.45
2018-08-03T05:16:56.124Z,100514.48
2018-08-03T05:19:24.000Z,100515.39
2018-08-03T05:21:51.658Z,100506.84
2018-08-03T05:24:19.755Z,100514.43
2018-08-03T05:26:47.423Z,100515.37
2018-08-03T05:29:15.155Z,100524.10
2018-08-03T05:31:42.837Z,100523.70
2018-08-03T05:34:10.572Z,100526.41
2018-08-03T05:36:38.307Z,100527.38
2018-08-03T05:39:09.180Z,100528.55
2018-08-03T05:41:37.250Z,100531.00
2018-08-03T05:44:05.333Z,100530.48
2018-08-03T05:46:33.000Z,100533.50
2018-08-03T05:49:00.610Z,100535.01
2018-08-03T05:51:28.255Z,100535.48
2018-08-03T05:53:56.006Z,100544.71
2018-08-03T05:56:23.648Z,100537.02
2018-08-03T05:58:51.190Z,100527.80
2018-08-03T06:01:18.778Z,100532.44
2018-08-03T06:03:46.402Z,100530.38
2018-08-03T06:06:14.009Z,100529.39
2018-08-03T06:08:41.598Z,100532.09
2018-08-03T06:11:09.193Z,100532.13
2018-08-03T06:13:36.787Z,100537.66
2018-08-03T06:16:04.408Z,100532.78
2018-08-03T06:18:32.075Z,100534.31
2018-08-03T06:20:59.669Z,100536.58
2018-08-03T06:23:27.319Z,100536.69
2018-08-03T06:25:54.982Z,100532.34
2018-08-03T06:28:22.694Z,100533.14
2018-08-03T06:30:50.213Z,100532.67
2018-08-03T06:33:19.678Z,100465.28
2018-08-03T06:35:47.423Z,100523.73
2018-08-03T06:38:15.407Z,100531.95
2018-08-03T06:40:43.105Z,100530.81
2018-08-03T06:43:10.751Z,100534.16
2018-08-03T06:45:38.391Z,100537.84
2018-08-03T06:48:06.139Z,100536.95
2018-08-03T06:50:33.732Z,100533.11
2018-08-03T06:53:01.495Z,100533.20
2018-08-03T06:55:29.089Z,100534.79
2018-08-03T06:57:56.670Z,100533.27
2018-08-03T07:00:24.301Z,100539.23
2018-08-03T07:02:51.955Z,100540.68
2018-08-03T07:05:19.615Z,100540.89
2018-08-03T07:07:47.222Z,100540.68
2018-08-03T07:10:14.825Z,100547.98
2018-08-03T07:12:42.408Z,100544.83
2018-08-03T07:15:10.143Z,100552.56
2018-08-03T07:17:37.801Z,100549.64
2018-08-03T07:20:05.731Z,100546.11
2018-08-03T07:22:33.336Z,100538.76
2018-08-03T07:25:01.008Z,100535.89
2018-08-03T07:27:28.671Z,100531.68
2018-08-03T07:29:56.374Z,100524.03
2018-08-03T07:32:24.193Z,100528.42
2018-08-03T07:34:51.812Z,100527.92
2018-08-03T07:37:19.434Z,100526.58
2018-08-03T07:39:47.024Z,100525.63
2018-08-03T07:42:14.631Z,100525.55
2018-08-03T07:44:42.324Z,100521.25
2018-08-03T07:47:10.363Z,100530.33
2018-08-03T07:49:37.974Z,100532.25
2018-08-03T07:52:05.646Z,100528.41
2018-08-03T07:54:33.256Z,100537.08
2018-08-03T07:57:00.872Z,100535.67
2018-08-03T07:59:28.489Z,100535.48
2018-08-03T08:01:56.102Z,100527.41
2018-08-03T08:04:23.712Z,100528.98
2018-08-03T08:06:51.362Z,100534.50
2018-08-03T08:09:18.959Z,100532.72
2018-08-03T08:11:46.687Z,100534.54
2018-08-03T08:14:14.371Z,100528.10
2018-08-03T08:16:42.039Z,100536.59
2018-08-03T08:19:09.752Z,100525.41
2018-08-03T08:21:37.380Z,100525.09
2018-08-03T08:24:05.093Z,100528.25
2018-08-03T08:26:32.740Z,100525.71
2018-08-03T08:29:00.417Z,100530.33
2018-08-03T08:31:28.080Z,100527.73
2018-08-03T08:33:55.713Z,100524.08
2018-08-03T08:36:23.375Z,100524.30
2018-08-03T08:38:51.047Z,100521.46
2018-08-03T08:41:18.733Z,100520.77
2018-08-03T08:43:46.435Z,100517.01
2018-08-03T08:46:14.058Z,100517.83
2018-08-03T08:48:41.721Z,100523.38
2018-08-03T08:51:09.478Z,100512.08
2018-08-03T08:53:37.154Z,100514.87
2018-08-03T08:56:04.966Z,100510.03
2018-08-03T08:58:32.665Z,100513.08
2018-08-03T09:01:00.325Z,100513.26
2018-08-03T09:03:27.954Z,100509.05
2018-08-03T09:05:55.800Z,100516.23
2018-08-03T09:08:24.438Z,100512.72
2018-08-03T09:10:52.103Z,100505.20
2018-08-03T09:13:19.733Z,100516.23
2018-08-03T09:15:47.343Z,100508.94
2018-08-03T09:18:14.936Z,100503.00
2018-08-03T09:20:42.547Z,100501.72
2018-08-03T09:23:10.140Z,100500.42
2018-08-03T09:25:37.780Z,100499.45
2018-08-03T09:28:05.858Z,100498.10
2018-08-03T09:30:33.410Z,100499.14
2018-08-03T09:33:00.982Z,100492.27
2018-08-03T09:35:28.732Z,100488.84
2018-08-03T09:37:56.290Z,100488.59
2018-08-03T09:40:23.892Z,100487.66
2018-08-03T09:42:51.534Z,100495.26
2018-08-03T09:45:19.145Z,100483.70
2018-08-03T09:47:46.774Z,100478.91
2018-08-03T09:50:14.438Z,100477.35
2018-08-03T09:52:42.017Z,100471.40
2018-08-03T09:55:09.664Z,100470.89
2018-08-03T09:57:37.185Z,100469.29
2018-08-03T10:00:05.261Z,100471.25
2018-08-03T10:02:32.857Z,100461.25
2018-08-03T10:05:00.431Z,100455.85
2018-08-03T10:07:28.083Z,100451.88
2018-08-03T10:09:55.630Z,100457.64
2018-08-03T10:12:23.293Z,100453.41
2018-08-03T10:14:50.907Z,100459.77
2018-08-03T10:17:18.561Z,100447.59
2018-08-03T10:19:46.114Z,100442.00
2018-08-03T10:22:13.635Z,100439.70
2018-08-03T10:24:41.173Z,100444.47
2018-08-03T10:27:08.769Z,100442.36
2018-08-03T10:29:36.400Z,100441.13
2018-08-03T10:32:03.915Z,100433.59
2018-08-03T10:34:31.489Z,100431.81
2018-08-03T10:36:59.209Z,100435.96
2018-08-03T10:39:26.774Z,100426.89
2018-08-03T10:41:54.372Z,100422.63
2018-08-03T10:44:21.949Z,100427.48
2018-08-03T10:46:49.541Z,100422.36
2018-08-03T10:49:17.119Z,100417.27
2018-08-03T10:51:44.695Z,100411.38
2018-08-03T10:54:12.308Z,100402.08
2018-08-03T10:56:39.958Z,100403.74
2018-08-03T10:59:07.509Z,100402.34
2018-08-03T11:01:35.185Z,100405.91
2018-08-03T11:04:02.842Z,100398.33
2018-08-03T11:06:30.440Z,100400.36
2018-08-03T11:08:57.956Z,100395.22
2018-08-03T11:11:25.530Z,100388.59
2018-08-03T11:13:53.169Z,100395.60
2018-08-03T11:16:20.820Z,100392.55
2018-08-03T11:18:48.354Z,100386.50
2018-08-03T11:21:15.988Z,100383.83
2018-08-03T11:23:43.577Z,100380.53
2018-08-03T11:26:11.144Z,100381.30
2018-08-03T11:28:38.787Z,100378.72
2018-08-03T11:31:06.351Z,100378.56
2018-08-03T11:33:34.001Z,100372.16
2018-08-03T11:36:01.617Z,100367.11
2018-08-03T11:38:29.198Z,100367.18
2018-08-03T11:40:56.878Z,100371.66
2018-08-03T11:43:24.758Z,100369.14
2018-08-03T11:45:52.346Z,100363.01
2018-08-03T11:48:19.975Z,100360.68
2018-08-03T11:50:47.727Z,100360.75
2018-08-03T11:53:15.310Z,100356.17
2018-08-03T11:55:42.858Z,100355.15
2018-08-03T11:58:10.420Z,100353.56
2018-08-03T12:00:37.983Z,100350.56
2018-08-03T12:03:05.647Z,100343.50
2018-08-03T12:05:33.223Z,100344.30
2018-08-03T12:08:00.837Z,100337.22
2018-08-03T12:10:28.363Z,100336.36
2018-08-03T12:12:55.936Z,100332.52
2018-08-03T12:15:23.567Z,100334.09
2018-08-03T12:17:51.133Z,100336.98
2018-08-03T12:20:18.664Z,100339.41
2018-08-03T12:22:46.209Z,100336.91
2018-08-03T12:25:13.790Z,100330.27
2018-08-03T12:27:41.373Z,100329.37
2018-08-03T12:30:08.914Z,100326.53
2018-08-03T12:32:36.512Z,100322.82
2018-08-03T12:35:04.121Z,100316.50
2018-08-03T12:37:31.667Z,100312.02
2018-08-03T12:39:59.236Z,100313.12
2018-08-03T12:42:26.803Z,100310.58
2018-08-03T12:44:54.313Z,100305.31
2018-08-03T12:47:21.889Z,100301.92
2018-08-03T12:49:49.465Z,100296.86
2018-08-03T12:52:17.073Z,100301.64
2018-08-03T12:54:44.662Z,100300.48
2018-08-03T12:57:12.269Z,100290.03
2018-08-03T12:59:39.833Z,100285.81
2018-08-03T13:02:07.461Z,100283.11
2018-08-03T13:04:35.479Z,100286.48
2018-08-03T13:07:03.164Z,100277.78
2018-08-03T13:09:30.756Z,100275.56
2018-08-03T13:11:58.484Z,100273.86
2018-08-03T13:14:26.039Z,100272.27
2018-08-03T13:16:53.710Z,100275.22
2018-08-03T13:19:21.334Z,100273.41
2018-08-03T13:21:48.893Z,100271.89
2018-08-03T13:24:16.499Z,100263.66
2018-08-03T13:26:44.151Z,100260.06
2018-08-03T13:29:12.062Z,100260.09
2018-08-03T13:31:39.634Z,100263.33
2018-08-03T13:34:07.236Z,100258.30
2018-08-03T13:36:34.905Z,100248.53
2018-08-03T13:39:02.665Z,100244.59
2018-08-03T13:41:30.269Z,100247.73
2018-08-03T13:43:57.900Z,100248.82
2018-08-03T13:46:25.527Z,100245.59
2018-08-03T13:48:53.138Z,100253.09
2018-08-03T13:51:20.755Z,100255.34
2018-08-03T13:53:48.486Z,100242.91
2018-08-03T13:56:16.875Z,100245.56
2018-08-03T13:58:45.161Z,100249.72
2018-08-03T14:01:30.310Z,100247.21
2018-08-03T14:03:58.024Z,100248.52
2018-08-03T14:06:25.602Z,100240.48
2018-08-03T14:08:53.126Z,100240.09
2018-08-03T14:11:20.665Z,100235.68
2018-08-03T14:13:48.340Z,100227.45
2018-08-03T14:16:16.076Z,100229.67
2018-08-03T14:18:44.573Z,100224.28
2018-08-03T14:21:12.133Z,100220.36
2018-08-03T14:23:39.711Z,100211.99
2018-08-03T14:26:07.301Z,100204.50
2018-08-03T14:28:34.931Z,100198.81
2018-08-03T14:31:02.585Z,100202.89
2018-08-03T14:33:30.233Z,100190.75
2018-08-03T14:35:57.785Z,100195.77
2018-08-03T14:38:25.461Z,100184.27
2018-08-03T14:40:53.063Z,100191.12
2018-08-03T14:43:20.639Z,100191.59
2018-08-03T14:45:48.258Z,100185.55
2018-08-03T14:48:15.903Z,100180.72
2018-08-03T15:14:21.224Z,100157.13
2018-08-03T15:16:48.751Z,100161.63
2018-08-03T15:19:16.327Z,100153.13
2018-08-03T15:21:43.850Z,100149.83
2018-08-03T15:24:11.440Z,100151.85
2018-08-03T15:26:38.977Z,100152.73
2018-08-03T15:29:06.566Z,100149.94
2018-08-03T15:31:34.121Z,100142.98
2018-08-03T15:34:01.722Z,100152.94
2018-08-03T15:36:29.258Z,100142.61
2018-08-03T15:38:56.819Z,100143.37
2018-08-03T15:41:24.366Z,100138.52
2018-08-03T15:43:52.118Z,100133.14
2018-08-03T15:46:19.652Z,100130.86
2018-08-03T15:48:47.220Z,100124.55
2018-08-03T15:51:14.817Z,100124.56
2018-08-03T15:53:42.442Z,100118.44
2018-08-03T15:56:10.058Z,100123.86
2018-08-03T15:58:37.651Z,100123.02
2018-08-03T16:01:05.230Z,100127.70
2018-08-03T16:03:32.781Z,100126.38
2018-08-03T16:06:00.374Z,100119.39
2018-08-03T16:08:28.134Z,100116.73
2018-08-03T16:10:55.730Z,100117.83
2018-08-03T16:13:23.299Z,100116.22
2018-08-03T16:15:50.869Z,100113.86
2018-08-03T16:18:18.464Z,100116.19
2018-08-03T16:20:46.054Z,100114.03
2018-08-03T16:23:13.627Z,100112.27
2018-08-03T16:25:41.251Z,100109.61
2018-08-03T16:28:08.809Z,100110.45
2018-08-03T16:30:36.317Z,100109.14
2018-08-03T16:33:03.929Z,100105.97
2018-08-03T16:35:31.497Z,100110.21
2018-08-03T16:37:59.111Z,100107.95
2018-08-03T16:40:26.728Z,100109.31
2018-08-03T16:42:54.330Z,100104.52
2018-08-03T16:45:22.073Z,100107.07
2018-08-03T16:47:49.633Z,100108.37
2018-08-03T16:50:17.190Z,100101.41
2018-08-03T16:52:44.898Z,100107.86
2018-08-03T16:55:12.502Z,100108.47
2018-08-03T16:57:40.014Z,100112.20
2018-08-03T17:00:07.633Z,100110.98
2018-08-03T17:02:35.150Z,100105.98
2018-08-03T17:05:03.162Z,100104.57
2018-08-03T17:07:30.744Z,100101.03
2018-08-03T17:09:58.299Z,100099.80
2018-08-03T17:12:25.859Z,100102.04
2018-08-03T17:14:53.450Z,100099.25
2018-08-03T17:17:21.002Z,100095.30
2018-08-03T17:19:48.543Z,100093.89
2018-08-03T17:22:16.089Z,100093.75
2018-08-03T17:24:43.621Z,100086.48
2018-08-03T17:27:11.189Z,100092.08
2018-08-03T17:29:38.800Z,100086.97
2018-08-03T17:32:06.426Z,100084.89
2018-08-03T17:34:33.991Z,100087.37
2018-08-03T17:37:01.683Z,100084.98
2018-08-03T17:39:29.183Z,100085.41
2018-08-03T17:41:56.747Z,100072.17
2018-08-03T17:44:25.331Z,100075.34
2018-08-03T17:46:52.924Z,100077.57
2018-08-03T17:49:20.770Z,100085.30
2018-08-03T17:51:48.377Z,100084.31
2018-08-03T17:54:15.960Z,100087.35
2018-08-03T17:56:43.546Z,100082.49
2018-08-03T17:59:11.160Z,100083.59
2018-08-03T18:01:38.747Z,100086.16
2018-08-03T18:04:06.302Z,100089.16
2018-08-03T18:06:33.898Z,100094.89
2018-08-03T18:09:01.517Z,100092.17
2018-08-03T18:11:29.122Z,100098.99
2018-08-03T18:13:56.834Z,100091.62
2018-08-03T18:16:24.475Z,100093.20
2018-08-03T18:18:52.070Z,100093.75
2018-08-03T18:21:19.657Z,100102.47
2018-08-03T18:23:47.359Z,100097.53
2018-08-03T18:26:14.898Z,100094.54
2018-08-03T18:28:42.579Z,100102.12
2018-08-03T18:31:10.125Z,100102.62
2018-08-03T18:33:37.821Z,100097.10
2018-08-03T18:36:05.408Z,100097.84
2018-08-03T18:38:32.977Z,100101.87
2018-08-03T18:41:02.036Z,100102.38
2018-08-03T18:43:29.796Z,100105.09
2018-08-03T18:45:57.470Z,100100.91
2018-08-03T18:48:25.058Z,100102.30
2018-08-03T18:50:52.726Z,100113.69
2018-08-03T18:53:20.256Z,100114.45
2018-08-03T18:55:47.999Z,100110.54
2018-08-03T18:58:15.691Z,100114.27
2018-08-03T19:00:43.292Z,100114.74
2018-08-03T19:03:10.851Z,100120.89
2018-08-03T19:05:38.514Z,100124.07
2018-08-03T19:08:06.085Z,100133.75
2018-08-03T19:10:33.654Z,100131.50
2018-08-03T19:13:01.306Z,100129.47
2018-08-03T19:15:28.913Z,100131.84
2018-08-03T19:17:57.719Z,100127.97
2018-08-03T19:20:25.269Z,100123.27
2018-08-03T19:22:52.920Z,100134.78
2018-08-03T19:25:20.633Z,100127.60
2018-08-03T19:27:48.349Z,100128.60
2018-08-03T19:30:16.038Z,100122.72
2018-08-03T19:32:43.768Z,100118.78
2018-08-03T19:35:11.501Z,100120.45
2018-08-03T19:37:39.419Z,100119.59
2018-08-03T19:40:07.173Z,100119.59
2018-08-03T19:42:34.854Z,100114.63
2018-08-03T19:45:02.565Z,100122.41
2018-08-03T19:47:30.319Z,100120.38
2018-08-03T19:49:57.990Z,100122.21
2018-08-03T19:52:25.653Z,100119.72
2018-08-03T19:54:53.317Z,100117.14
2018-08-03T19:57:21.030Z,100125.61
2018-08-03T19:59:48.574Z,100132.63
2018-08-03T20:02:16.453Z,100124.56
2018-08-03T20:04:44.038Z,100125.53
2018-08-03T20:07:11.685Z,100128.97
2018-08-03T20:09:39.309Z,100130.83
2018-08-03T20:12:09.224Z,100130.61
2018-08-03T20:14:36.896Z,100130.72
2018-08-03T20:17:04.579Z,100128.34
2018-08-03T20:19:32.268Z,100126.36
2018-08-03T20:21:59.942Z,100124.69
2018-08-03T20:24:27.629Z,100127.39
2018-08-03T20:26:55.350Z,100130.66
2018-08-03T20:29:22.952Z,100130.78
2018-08-03T20:31:50.574Z,100126.42
2018-08-03T20:34:18.174Z,100128.63
2018-08-03T20:36:45.898Z,100129.23
2018-08-03T20:39:13.511Z,100132.34
2018-08-03T20:41:41.120Z,100128.29
2018-08-03T20:44:08.791Z,100133.13
2018-08-03T20:46:36.446Z,100133.55
2018-08-03T20:49:04.278Z,100138.58
2018-08-03T20:51:31.925Z,100136.17
2018-08-03T20:53:59.781Z,100130.66
2018-08-03T20:56:27.415Z,100124.45
2018-08-03T20:58:55.146Z,100137.97
2018-08-03T21:01:22.717Z,100129.86
2018-08-03T21:03:50.337Z,100136.61
2018-08-03T21:06:17.932Z,100142.62
2018-08-03T21:08:45.544Z,100142.13
2018-08-03T21:11:13.130Z,100146.20
2018-08-03T21:13:40.765Z,100151.40
2018-08-03T21:16:08.403Z,100148.67
2018-08-03T21:18:36.165Z,100145.02
2018-08-03T21:21:03.822Z,100149.81
2018-08-03T21:23:31.494Z,100145.13
2018-08-03T21:25:59.054Z,100140.95
2018-08-03T21:28:26.740Z,100141.34
2018-08-03T21:30:54.361Z,100149.45
2018-08-03T21:33:22.202Z,100139.36
2018-08-03T21:35:49.864Z,100139.81
2018-08-03T21:38:17.552Z,100137.75
2018-08-03T21:40:49.725Z,100142.70
2018-08-03T21:43:17.289Z,100139.59
2018-08-03T21:45:44.886Z,100147.58
2018-08-03T21:48:12.511Z,100143.87
2018-08-03T21:50:40.178Z,100147.16
2018-08-03T21:53:07.770Z,100145.97
2018-08-03T21:55:35.339Z,100151.44
2018-08-03T21:58:03.057Z,100141.17
2018-08-03T22:00:30.723Z,100144.48
2018-08-03T22:02:58.366Z,100147.48
2018-08-03T22:05:26.002Z,100143.05
2018-08-03T22:07:53.582Z,100140.62
2018-08-03T22:10:21.149Z,100140.94
2018-08-03T22:12:48.720Z,100138.56
2018-08-03T22:15:16.362Z,100142.47
2018-08-03T22:17:43.958Z,100145.08
2018-08-03T22:20:11.629Z,100128.56
2018-08-03T22:22:39.255Z,100146.88
2018-08-03T22:25:06.965Z,100140.45
2018-08-03T22:27:34.516Z,100150.55
2018-08-03T22:30:02.082Z,100153.97
2018-08-03T22:32:29.773Z,100152.97
2018-08-03T22:34:57.370Z,100146.37
2018-08-03T22:37:25.031Z,100140.82
2018-08-03T22:39:52.830Z,100145.05
2018-08-03T22:42:20.464Z,100138.16
2018-08-03T22:44:48.071Z,100137.10
2018-08-03T22:47:15.612Z,100142.59
2018-08-03T22:49:43.253Z,100145.59
2018-08-03T22:52:10.792Z,100148.86
2018-08-03T22:54:38.408Z,100144.45
2018-08-03T22:57:06.021Z,100138.67
2018-08-03T22:59:33.616Z,100143.64
2018-08-03T23:02:01.234Z,100139.45
2018-08-03T23:04:28.878Z,100139.63
2018-08-03T23:06:56.462Z,100140.23
2018-08-03T23:09:24.061Z,100137.56
2018-08-03T23:11:51.673Z,100133.42
2018-08-03T23:14:19.275Z,100133.13
2018-08-03T23:16:47.005Z,100129.59
2018-08-03T23:19:14.611Z,100126.84
2018-08-03T23:21:42.241Z,100131.61
2018-08-03T23:24:09.857Z,100125.66
2018-08-03T23:26:37.413Z,100125.26
2018-08-03T23:29:05.038Z,100123.94
2018-08-03T23:31:32.615Z,100119.80
2018-08-03T23:34:00.274Z,100127.86
2018-08-03T23:36:27.870Z,100125.58
2018-08-03T23:38:55.538Z,100129.70
2018-08-03T23:41:23.150Z,100129.09
2018-08-03T23:43:50.758Z,100138.16
2018-08-03T23:46:18.498Z,100133.45
2018-08-03T23:48:46.184Z,100131.66
2018-08-03T23:51:13.825Z,100129.91
2018-08-03T23:53:41.515Z,100122.47
2018-08-03T23:56:09.089Z,100128.59
2018-08-03T23:58:36.723Z,100124.52
